Time;durP1;ratioP1;P1;durP2;ratioP2;P2;SDS_P1;SDS_P2;PMS_P1;PMS_P2;Temp;Humidity;BMP_temperature;BMP_pressure;BME280_temperature;BME280_humidity;BME280_pressure;Samples;Min_cycle;Max_cycle;Signal;HPM_P1;HPM_P2
2024/01/18 00:01:14;;;;;;;19.33;10.02;;;;;;;;;;4997079;28;20028;-75
2024/01/18 00:03:40;;;;;;;15.52;8.93;;;;;;;;;;5014695;28;20072;-76
2024/01/18 00:06:07;;;;;;;19.20;9.98;;;;;;;;;;5014486;28;20022;-76
2024/01/18 00:08:32;;;;;;;20.48;10.30;;;;;;;;;;5014193;28;20115;-75
2024/01/18 00:10:58;;;;;;;17.08;9.48;;;;;;;;;;5014502;28;20037;-76
2024/01/18 00:13:23;;;;;;;17.83;9.35;;;;;;;;;;4996966;28;20105;-76
2024/01/18 00:15:49;;;;;;;20.63;10.30;;;;;;;;;;5014381;28;20057;-76
2024/01/18 00:18:14;;;;;;;18.23;9.63;;;;;;;;;;5014452;28;20033;-76
2024/01/18 00:20:40;;;;;;;18.75;10.13;;;;;;;;;;4997173;28;20079;-75
2024/01/18 00:23:05;;;;;;;19.63;11.15;;;;;;;;;;5015277;28;20026;-76
2024/01/18 00:25:30;;;;;;;19.23;9.60;;;;;;;;;;5015325;28;20044;-76
2024/01/18 00:27:55;;;;;;;24.45;11.23;;;;;;;;;;5017279;28;20030;-77
2024/01/18 00:30:21;;;;;;;19.75;10.45;;;;;;;;;;5026636;28;20033;-76
2024/01/18 00:32:46;;;;;;;18.98;10.07;;;;;;;;;;5010460;28;20018;-76
2024/01/18 00:35:11;;;;;;;18.52;9.95;;;;;;;;;;5022456;28;20087;-77
2024/01/18 00:37:36;;;;;;;18.90;10.63;;;;;;;;;;5014457;28;20026;-76
2024/01/18 00:40:02;;;;;;;20.20;10.13;;;;;;;;;;5014097;28;20091;-76
2024/01/18 00:42:27;;;;;;;18.00;9.90;;;;;;;;;;4996374;28;20033;-76
2024/01/18 00:44:52;;;;;;;18.33;10.23;;;;;;;;;;5014176;28;20025;-75
2024/01/18 00:47:17;;;;;;;21.45;10.13;;;;;;;;;;5013818;28;20087;-76
2024/01/18 00:49:43;;;;;;;18.33;10.57;;;;;;;;;;5013797;28;20102;-75
2024/01/18 00:52:09;;;;;;;18.60;10.13;;;;;;;;;;5013936;28;20109;-76
2024/01/18 00:54:34;;;;;;;19.77;10.63;;;;;;;;;;5013928;28;20171;-75
2024/01/18 00:56:59;;;;;;;19.92;11.00;;;;;;;;;;5013754;28;20076;-75
2024/01/18 00:59:25;;;;;;;19.70;11.25;;;;;;;;;;4996352;28;20417;-75
2024/01/18 01:01:50;;;;;;;21.35;10.95;;;;;;;;;;5013595;28;20397;-76
2024/01/18 01:04:15;;;;;;;22.90;11.85;;;;;;;;;;5013590;28;20033;-74
2024/01/18 01:06:40;;;;;;;18.88;11.05;;;;;;;;;;4996001;28;20477;-75
2024/01/18 01:09:06;;;;;;;20.58;11.07;;;;;;;;;;5013845;28;20397;-76
2024/01/18 01:11:31;;;;;;;21.88;11.90;;;;;;;;;;4995842;28;20022;-76
2024/01/18 01:13:56;;;;;;;21.50;11.15;;;;;;;;;;5013429;28;20018;-76
2024/01/18 01:16:22;;;;;;;18.90;11.40;;;;;;;;;;5013774;28;20028;-75
2024/01/18 01:18:47;;;;;;;20.60;11.77;;;;;;;;;;5013577;28;20400;-75
2024/01/18 01:21:12;;;;;;;22.20;12.25;;;;;;;;;;5013944;28;20060;-75
2024/01/18 01:23:44;;;;;;;21.30;12.40;;;;;;;;;;5013174;28;20091;-75
2024/01/18 01:26:09;;;;;;;22.05;12.75;;;;;;;;;;5013627;28;20030;-76
2024/01/18 01:28:34;;;;;;;18.23;10.60;;;;;;;;;;5013374;28;20060;-76
2024/01/18 01:31:00;;;;;;;19.73;10.77;;;;;;;;;;5013211;28;20026;-76
2024/01/18 01:33:25;;;;;;;18.42;11.15;;;;;;;;;;5013315;28;20446;-76
2024/01/18 01:35:50;;;;;;;25.02;12.35;;;;;;;;;;5013455;28;20026;-77
2024/01/18 01:38:15;;;;;;;21.25;11.43;;;;;;;;;;5013713;28;20072;-76
2024/01/18 01:40:41;;;;;;;20.20;10.80;;;;;;;;;;4996121;28;20030;-77
2024/01/18 01:43:06;;;;;;;17.58;10.35;;;;;;;;;;5013646;28;20077;-77
2024/01/18 01:45:31;;;;;;;21.13;11.48;;;;;;;;;;4995931;28;20507;-77
2024/01/18 01:47:56;;;;;;;19.38;11.20;;;;;;;;;;5013884;28;20477;-76
2024/01/18 01:50:22;;;;;;;23.38;12.85;;;;;;;;;;5013632;28;20435;-76
2024/01/18 01:52:48;;;;;;;23.75;12.48;;;;;;;;;;5013255;28;20026;-77
2024/01/18 01:55:15;;;;;;;23.55;12.43;;;;;;;;;;5013313;28;20096;-77
2024/01/18 01:57:43;;;;;;;23.85;12.68;;;;;;;;;;4995800;28;20107;-77
2024/01/18 02:00:09;;;;;;;24.38;11.52;;;;;;;;;;4995631;28;20022;-77
2024/01/18 02:02:35;;;;;;;22.55;12.23;;;;;;;;;;5013808;28;20033;-76
2024/01/18 02:05:00;;;;;;;23.80;12.80;;;;;;;;;;4995892;28;20439;-77
2024/01/18 02:07:28;;;;;;;22.05;11.18;;;;;;;;;;5013589;28;20112;-76
2024/01/18 02:09:53;;;;;;;22.23;12.25;;;;;;;;;;5013130;28;20021;-77
2024/01/18 02:12:20;;;;;;;22.38;12.75;;;;;;;;;;4995749;28;20053;-77
2024/01/18 02:14:45;;;;;;;24.08;12.88;;;;;;;;;;4995968;28;20022;-75
2024/01/18 02:17:10;;;;;;;21.20;11.25;;;;;;;;;;4995449;28;20178;-76
2024/01/18 02:19:36;;;;;;;20.35;11.32;;;;;;;;;;4996438;28;20037;-76
2024/01/18 02:22:02;;;;;;;21.15;11.52;;;;;;;;;;4997370;28;20030;-76
2024/01/18 02:24:50;;;;;;;19.70;10.88;;;;;;;;;;5013840;28;20026;-76
2024/01/18 02:27:15;;;;;;;20.20;11.02;;;;;;;;;;5013650;28;20441;-77
2024/01/18 02:29:41;;;;;;;20.02;11.32;;;;;;;;;;5013536;28;20044;-75
2024/01/18 02:32:06;;;;;;;22.80;12.25;;;;;;;;;;5016578;28;20026;-77
2024/01/18 02:34:31;;;;;;;20.98;11.73;;;;;;;;;;5017343;28;20504;-76
2024/01/18 02:36:56;;;;;;;24.55;11.85;;;;;;;;;;5017599;28;20029;-76
2024/01/18 02:39:22;;;;;;;20.80;11.05;;;;;;;;;;5017259;28;20060;-76
2024/01/18 02:41:48;;;;;;;20.80;11.10;;;;;;;;;;4999196;28;20028;-76
2024/01/18 02:44:14;;;;;;;22.33;10.68;;;;;;;;;;5016880;28;20477;-76
2024/01/18 02:46:39;;;;;;;21.20;10.82;;;;;;;;;;5016922;28;20026;-76
2024/01/18 02:49:05;;;;;;;21.05;11.63;;;;;;;;;;5016574;28;20105;-76
2024/01/18 02:51:32;;;;;;;22.80;11.57;;;;;;;;;;5016111;28;20021;-76
2024/01/18 02:53:57;;;;;;;17.20;9.55;;;;;;;;;;5016653;28;20028;-75
2024/01/18 02:56:23;;;;;;;18.83;11.02;;;;;;;;;;5016880;28;20108;-76
2024/01/18 02:58:48;;;;;;;22.08;10.95;;;;;;;;;;5016092;28;20124;-76
2024/01/18 03:01:14;;;;;;;18.20;10.30;;;;;;;;;;5016161;28;20060;-76
2024/01/18 03:03:39;;;;;;;19.35;10.52;;;;;;;;;;5015949;28;20516;-75
2024/01/18 03:06:04;;;;;;;21.55;11.60;;;;;;;;;;4998712;28;20029;-76
2024/01/18 03:08:30;;;;;;;20.10;11.38;;;;;;;;;;5016025;28;20101;-76
2024/01/18 03:10:55;;;;;;;18.98;10.13;;;;;;;;;;5015798;28;20021;-76
2024/01/18 03:13:20;;;;;;;21.13;11.68;;;;;;;;;;5015581;28;20018;-76
2024/01/18 03:15:45;;;;;;;20.15;11.07;;;;;;;;;;5015982;28;20029;-76
2024/01/18 03:18:11;;;;;;;20.45;10.88;;;;;;;;;;5015621;28;20045;-76
2024/01/18 03:20:36;;;;;;;21.73;11.90;;;;;;;;;;5015692;28;20022;-76
2024/01/18 03:23:01;;;;;;;19.70;10.40;;;;;;;;;;5015532;28;20444;-77
2024/01/18 03:25:27;;;;;;;19.23;9.80;;;;;;;;;;5015445;28;20033;-77
2024/01/18 03:27:52;;;;;;;21.23;11.18;;;;;;;;;;5015576;28;20022;-76
2024/01/18 03:30:17;;;;;;;19.63;10.45;;;;;;;;;;5016396;28;20029;-76
2024/01/18 03:32:42;;;;;;;18.58;9.88;;;;;;;;;;5018336;28;20105;-77
2024/01/18 03:35:08;;;;;;;16.77;9.25;;;;;;;;;;4999577;28;20045;-77
2024/01/18 03:37:33;;;;;;;11.68;7.38;;;;;;;;;;5020372;28;20029;-77
2024/01/18 03:39:58;;;;;;;10.45;4.90;;;;;;;;;;5001085;28;20502;-77
2024/01/18 03:42:24;;;;;;;16.77;8.65;;;;;;;;;;4997263;28;20481;-77
2024/01/18 03:44:49;;;;;;;17.55;9.00;;;;;;;;;;5016226;28;20045;-77
2024/01/18 03:47:15;;;;;;;13.05;7.25;;;;;;;;;;5018567;28;20084;-77
2024/01/18 03:49:41;;;;;;;15.85;8.50;;;;;;;;;;5016322;28;20050;-76
2024/01/18 03:52:06;;;;;;;16.55;7.70;;;;;;;;;;4998710;28;20093;-76
2024/01/18 03:54:31;;;;;;;14.10;7.95;;;;;;;;;;5017937;28;20041;-77
2024/01/18 03:56:57;;;;;;;10.93;6.13;;;;;;;;;;5016021;28;20485;-77
2024/01/18 03:59:23;;;;;;;13.05;7.10;;;;;;;;;;5017059;28;20547;-75
2024/01/18 04:01:49;;;;;;;11.32;6.38;;;;;;;;;;5017114;28;20026;-78
2024/01/18 04:04:14;;;;;;;12.80;6.18;;;;;;;;;;5016618;28;20037;-77
2024/01/18 04:06:39;;;;;;;12.48;6.65;;;;;;;;;;5016769;28;20499;-76
2024/01/18 04:09:06;;;;;;;10.50;6.60;;;;;;;;;;5016364;28;20038;-77
2024/01/18 04:11:31;;;;;;;9.18;4.57;;;;;;;;;;5015968;28;20061;-77
2024/01/18 04:13:56;;;;;;;11.10;6.72;;;;;;;;;;5016204;28;20014;-77
2024/01/18 04:16:22;;;;;;;10.68;6.05;;;;;;;;;;5016193;28;20038;-77
2024/01/18 04:18:47;;;;;;;11.40;6.80;;;;;;;;;;4997765;28;20128;-77
2024/01/18 04:21:16;;;;;;;10.82;6.15;;;;;;;;;;5015478;28;20073;-76
2024/01/18 04:23:41;;;;;;;12.48;6.97;;;;;;;;;;5014670;28;20092;-76
2024/01/18 04:26:06;;;;;;;13.55;7.05;;;;;;;;;;5017260;28;20026;-76
2024/01/18 04:28:32;;;;;;;11.90;6.00;;;;;;;;;;5011249;28;20026;-77
2024/01/18 04:30:57;;;;;;;12.50;7.13;;;;;;;;;;5037034;28;20010;-76
2024/01/18 04:33:23;;;;;;;10.30;5.47;;;;;;;;;;5030802;28;20075;-77
2024/01/18 04:35:48;;;;;;;12.60;7.28;;;;;;;;;;5014404;28;20263;-77
2024/01/18 04:38:13;;;;;;;12.50;7.55;;;;;;;;;;5014620;28;20405;-76
2024/01/18 04:40:38;;;;;;;11.75;7.03;;;;;;;;;;5014440;28;20034;-77
2024/01/18 04:43:04;;;;;;;11.98;7.13;;;;;;;;;;5014158;28;20088;-76
2024/01/18 04:45:29;;;;;;;14.30;8.05;;;;;;;;;;5014389;28;20512;-75
2024/01/18 04:47:56;;;;;;;11.60;6.95;;;;;;;;;;4996467;28;20527;-76
2024/01/18 04:50:24;;;;;;;13.70;7.95;;;;;;;;;;5014239;28;20488;-77
2024/01/18 04:52:52;;;;;;;15.65;7.93;;;;;;;;;;5014696;28;20021;-76
2024/01/18 04:55:18;;;;;;;13.00;7.43;;;;;;;;;;4996488;28;20053;-76
2024/01/18 04:57:43;;;;;;;11.00;7.10;;;;;;;;;;4997458;28;20018;-76
2024/01/18 05:00:10;;;;;;;13.50;7.53;;;;;;;;;;4996829;28;20026;-76
2024/01/18 05:02:41;;;;;;;14.65;8.57;;;;;;;;;;5014521;28;20060;-77
2024/01/18 05:05:08;;;;;;;15.00;7.63;;;;;;;;;;5014293;28;20092;-76
2024/01/18 05:07:34;;;;;;;17.10;8.50;;;;;;;;;;5013903;28;20030;-76
2024/01/18 05:10:00;;;;;;;15.10;8.38;;;;;;;;;;5013645;28;20049;-76
2024/01/18 05:12:25;;;;;;;12.00;7.05;;;;;;;;;;5013812;28;20033;-75
2024/01/18 05:14:50;;;;;;;12.75;7.22;;;;;;;;;;5013625;28;20038;-76
2024/01/18 05:17:16;;;;;;;16.77;8.50;;;;;;;;;;5013600;28;20049;-76
2024/01/18 05:19:42;;;;;;;18.80;8.88;;;;;;;;;;5013521;28;20041;-76
2024/01/18 05:22:07;;;;;;;17.08;8.55;;;;;;;;;;4996482;28;20057;-77
2024/01/18 05:24:33;;;;;;;13.90;7.68;;;;;;;;;;4997195;28;20117;-77
2024/01/18 05:26:58;;;;;;;16.38;7.38;;;;;;;;;;4998756;28;20022;-77
2024/01/18 05:29:23;;;;;;;16.13;7.07;;;;;;;;;;5015107;28;20570;-76
2024/01/18 05:31:48;;;;;;;11.65;6.43;;;;;;;;;;4996267;28;20400;-76
2024/01/18 05:34:14;;;;;;;12.07;6.13;;;;;;;;;;5014395;28;20052;-75
2024/01/18 05:36:39;;;;;;;11.98;7.00;;;;;;;;;;4997122;28;20477;-76
2024/01/18 05:39:04;;;;;;;11.82;6.20;;;;;;;;;;4996901;28;20108;-77
2024/01/18 05:41:29;;;;;;;11.02;5.93;;;;;;;;;;4997586;28;20060;-76
2024/01/18 05:43:55;;;;;;;14.48;6.80;;;;;;;;;;5014584;28;20052;-77
2024/01/18 05:46:20;;;;;;;11.13;6.82;;;;;;;;;;5014702;28;20036;-78
2024/01/18 05:48:45;;;;;;;10.85;6.40;;;;;;;;;;4996405;28;20021;-76
2024/01/18 05:51:11;;;;;;;15.35;7.45;;;;;;;;;;5014494;28;20022;-77
2024/01/18 05:53:36;;;;;;;17.70;6.88;;;;;;;;;;5014792;28;20045;-77
2024/01/18 05:56:01;;;;;;;10.85;6.03;;;;;;;;;;4996962;28;20064;-76
2024/01/18 05:58:29;;;;;;;14.20;6.53;;;;;;;;;;4996256;28;20030;-76
2024/01/18 06:00:54;;;;;;;12.75;6.22;;;;;;;;;;5013565;28;20109;-76
2024/01/18 06:03:20;;;;;;;8.90;5.47;;;;;;;;;;5013762;28;20045;-76
2024/01/18 06:05:45;;;;;;;11.27;6.22;;;;;;;;;;5015851;28;20037;-76
2024/01/18 06:08:10;;;;;;;12.38;6.75;;;;;;;;;;5018333;28;20034;-75
2024/01/18 06:10:35;;;;;;;9.93;5.78;;;;;;;;;;5000501;28;20042;-76
2024/01/18 06:13:01;;;;;;;10.55;5.63;;;;;;;;;;5018401;28;20018;-77
2024/01/18 06:15:26;;;;;;;10.95;6.60;;;;;;;;;;5018174;28;20033;-76
2024/01/18 06:17:51;;;;;;;13.85;6.53;;;;;;;;;;5018989;28;20025;-75
2024/01/18 06:20:16;;;;;;;12.82;5.97;;;;;;;;;;5001084;28;20121;-75
2024/01/18 06:22:42;;;;;;;11.23;6.85;;;;;;;;;;5001528;28;20053;-77
2024/01/18 06:25:07;;;;;;;12.82;6.57;;;;;;;;;;5001009;28;20022;-76
2024/01/18 06:27:33;;;;;;;10.95;6.25;;;;;;;;;;5018500;28;20114;-75
2024/01/18 06:29:58;;;;;;;15.50;7.30;;;;;;;;;;5018214;28;20021;-76
2024/01/18 06:32:25;;;;;;;14.32;8.18;;;;;;;;;;5018610;28;20029;-75
2024/01/18 06:34:50;;;;;;;15.52;8.10;;;;;;;;;;5000628;28;20033;-75
2024/01/18 06:37:15;;;;;;;14.98;8.93;;;;;;;;;;5000784;28;20033;-75
2024/01/18 06:39:41;;;;;;;17.77;9.10;;;;;;;;;;5017712;28;20045;-77
2024/01/18 06:42:07;;;;;;;19.17;9.02;;;;;;;;;;5017926;28;20049;-75
2024/01/18 06:44:33;;;;;;;20.92;9.48;;;;;;;;;;5000228;28;20125;-76
2024/01/18 06:47:00;;;;;;;17.85;9.02;;;;;;;;;;5001656;28;20065;-77
2024/01/18 06:49:25;;;;;;;18.60;9.48;;;;;;;;;;5018293;28;20022;-76
2024/01/18 06:51:50;;;;;;;18.60;9.63;;;;;;;;;;5018334;28;20079;-77
2024/01/18 06:54:17;;;;;;;20.27;10.25;;;;;;;;;;5015355;28;20255;-76
2024/01/18 06:56:46;;;;;;;17.90;10.05;;;;;;;;;;5000719;28;20041;-77
2024/01/18 06:59:11;;;;;;;18.83;9.85;;;;;;;;;;5018079;28;20036;-76
2024/01/18 07:01:36;;;;;;;21.10;9.52;;;;;;;;;;5016356;28;20545;-76
2024/01/18 07:04:02;;;;;;;20.08;9.80;;;;;;;;;;4998391;28;20041;-75
2024/01/18 07:06:27;;;;;;;21.10;10.15;;;;;;;;;;5016038;28;20038;-76
2024/01/18 07:08:52;;;;;;;19.85;9.65;;;;;;;;;;5016584;28;20041;-77
2024/01/18 07:11:18;;;;;;;19.05;9.57;;;;;;;;;;5016655;28;20076;-77
2024/01/18 07:13:43;;;;;;;16.15;8.85;;;;;;;;;;5016684;28;20417;-76
2024/01/18 07:16:08;;;;;;;19.50;10.57;;;;;;;;;;4999119;28;20080;-77
2024/01/18 07:18:34;;;;;;;21.48;10.57;;;;;;;;;;4999276;28;20403;-75
2024/01/18 07:20:59;;;;;;;19.52;11.13;;;;;;;;;;5015936;28;20029;-76
2024/01/18 07:23:24;;;;;;;18.73;10.38;;;;;;;;;;5015632;28;20033;-76
2024/01/18 07:25:50;;;;;;;18.73;10.23;;;;;;;;;;5016144;28;20525;-76
2024/01/18 07:28:16;;;;;;;19.90;9.88;;;;;;;;;;4999072;28;20025;-76
2024/01/18 07:30:41;;;;;;;19.40;9.68;;;;;;;;;;4999052;28;20499;-76
2024/01/18 07:33:07;;;;;;;18.52;9.50;;;;;;;;;;5016733;28;20439;-76
2024/01/18 07:35:32;;;;;;;15.23;9.13;;;;;;;;;;5016805;28;20036;-76
2024/01/18 07:37:58;;;;;;;13.43;7.70;;;;;;;;;;4998903;28;20092;-77
2024/01/18 07:40:24;;;;;;;20.00;9.18;;;;;;;;;;4998418;28;20080;-75
2024/01/18 07:42:49;;;;;;;14.70;8.80;;;;;;;;;;4998495;28;20030;-74
2024/01/18 07:45:14;;;;;;;18.10;8.13;;;;;;;;;;4998903;28;20041;-76
2024/01/18 07:47:41;;;;;;;20.35;9.45;;;;;;;;;;5015789;28;20026;-76
2024/01/18 07:50:08;;;;;;;20.77;10.40;;;;;;;;;;5015932;28;20105;-76
2024/01/18 07:52:33;;;;;;;17.55;8.55;;;;;;;;;;5016201;28;20072;-76
2024/01/18 07:54:59;;;;;;;22.85;9.05;;;;;;;;;;4998227;28;20026;-76
2024/01/18 07:57:24;;;;;;;19.55;9.15;;;;;;;;;;4998626;28;20032;-77
2024/01/18 07:59:49;;;;;;;17.75;8.90;;;;;;;;;;5014928;28;20029;-76
2024/01/18 08:02:14;;;;;;;15.23;8.88;;;;;;;;;;5016497;28;20076;-76
2024/01/18 08:04:40;;;;;;;17.98;8.40;;;;;;;;;;5015452;28;20105;-76
2024/01/18 08:07:05;;;;;;;16.85;8.38;;;;;;;;;;5015954;28;20060;-76
2024/01/18 08:09:30;;;;;;;21.58;9.48;;;;;;;;;;5016441;28;20065;-75
2024/01/18 08:11:56;;;;;;;18.48;9.45;;;;;;;;;;4998122;28;20057;-76
2024/01/18 08:14:21;;;;;;;17.45;9.15;;;;;;;;;;5015673;28;20045;-75
2024/01/18 08:16:47;;;;;;;20.42;9.93;;;;;;;;;;4998077;28;20428;-75
2024/01/18 08:19:12;;;;;;;19.58;10.52;;;;;;;;;;4997938;28;20400;-76
2024/01/18 08:21:43;;;;;;;22.58;10.45;;;;;;;;;;5015389;28;20028;-76
2024/01/18 08:24:09;;;;;;;18.10;9.13;;;;;;;;;;5015505;28;20389;-76
2024/01/18 08:26:34;;;;;;;18.77;9.38;;;;;;;;;;5017982;28;20018;-76
2024/01/18 08:28:59;;;;;;;19.02;9.63;;;;;;;;;;5016302;28;20026;-76
2024/01/18 08:31:25;;;;;;;20.23;11.20;;;;;;;;;;5016358;28;20040;-74
2024/01/18 08:33:50;;;;;;;20.95;11.20;;;;;;;;;;5014297;28;20018;-73
2024/01/18 08:36:15;;;;;;;20.63;10.48;;;;;;;;;;5014070;28;20444;-74
2024/01/18 08:38:41;;;;;;;22.05;10.25;;;;;;;;;;5013992;28;20086;-74
2024/01/18 08:41:06;;;;;;;22.10;11.25;;;;;;;;;;4996163;28;20109;-75
2024/01/18 08:43:31;;;;;;;17.33;9.80;;;;;;;;;;5014411;28;20263;-74
2024/01/18 08:45:56;;;;;;;21.55;11.13;;;;;;;;;;4996538;28;20045;-74
2024/01/18 08:48:22;;;;;;;19.70;10.15;;;;;;;;;;5014320;28;20088;-75
2024/01/18 08:50:47;;;;;;;23.73;10.27;;;;;;;;;;5014006;28;20018;-76
2024/01/18 08:53:12;;;;;;;20.67;10.73;;;;;;;;;;5013938;28;20017;-75
2024/01/18 08:55:38;;;;;;;23.95;11.95;;;;;;;;;;5014183;28;20033;-74
2024/01/18 08:58:05;;;;;;;23.30;10.98;;;;;;;;;;5013627;28;20389;-75
2024/01/18 09:00:31;;;;;;;21.90;10.70;;;;;;;;;;5013995;28;20026;-75
2024/01/18 09:02:56;;;;;;;22.75;10.63;;;;;;;;;;5013723;28;20029;-74
2024/01/18 09:05:21;;;;;;;17.42;9.25;;;;;;;;;;5014977;28;20029;-74
2024/01/18 09:07:47;;;;;;;23.55;10.82;;;;;;;;;;4996533;28;20076;-75
2024/01/18 09:10:12;;;;;;;22.27;10.82;;;;;;;;;;5014529;28;20061;-75
2024/01/18 09:12:38;;;;;;;25.38;12.30;;;;;;;;;;5014081;28;20026;-75
2024/01/18 09:15:03;;;;;;;21.90;11.63;;;;;;;;;;5014075;28;20511;-75
2024/01/18 09:17:29;;;;;;;22.10;10.23;;;;;;;;;;5013823;28;20025;-74
2024/01/18 09:19:54;;;;;;;22.00;11.50;;;;;;;;;;4996397;28;20065;-74
2024/01/18 09:22:19;;;;;;;20.98;11.45;;;;;;;;;;5014278;28;20034;-76
2024/01/18 09:24:44;;;;;;;21.67;10.40;;;;;;;;;;5014477;28;20022;-76
2024/01/18 09:27:11;;;;;;;20.80;11.07;;;;;;;;;;5014814;28;20088;-74
2024/01/18 09:29:36;;;;;;;22.90;11.45;;;;;;;;;;5014338;28;20066;-75
2024/01/18 09:32:03;;;;;;;23.40;10.32;;;;;;;;;;5014184;28;20034;-75
2024/01/18 09:34:29;;;;;;;17.90;9.40;;;;;;;;;;5014226;28;20022;-74
2024/01/18 09:36:54;;;;;;;26.45;12.05;;;;;;;;;;5013960;28;20436;-74
2024/01/18 09:39:19;;;;;;;23.00;12.02;;;;;;;;;;4996890;28;20030;-74
2024/01/18 09:41:52;;;;;;;22.80;12.30;;;;;;;;;;5019959;28;20073;-78
2024/01/18 09:44:31;;;;;;;25.55;12.48;;;;;;;;;;5018215;28;20504;-73
2024/01/18 09:46:58;;;;;;;16.85;8.32;;;;;;;;;;5018537;28;20040;-75
2024/01/18 09:49:30;;;;;;;25.17;11.82;;;;;;;;;;5017502;28;20060;-76
2024/01/18 09:51:57;;;;;;;26.48;12.60;;;;;;;;;;5018639;28;20571;-76
2024/01/18 09:54:23;;;;;;;26.70;12.40;;;;;;;;;;5018482;28;20401;-76
2024/01/18 09:56:52;;;;;;;24.23;12.68;;;;;;;;;;5017404;28;20022;-75
2024/01/18 09:59:18;;;;;;;29.38;12.15;;;;;;;;;;5017334;28;20105;-77
2024/01/18 10:01:44;;;;;;;27.40;13.15;;;;;;;;;;5019200;28;20076;-77
2024/01/18 10:04:14;;;;;;;25.98;12.60;;;;;;;;;;5001361;28;20030;-75
2024/01/18 10:06:40;;;;;;;24.70;11.50;;;;;;;;;;5016722;28;20076;-74
2024/01/18 10:09:06;;;;;;;25.50;11.75;;;;;;;;;;5016741;28;20057;-74
2024/01/18 10:11:32;;;;;;;23.20;12.07;;;;;;;;;;5016767;28;20029;-74
2024/01/18 10:13:59;;;;;;;26.92;11.82;;;;;;;;;;5016659;28;20030;-74
2024/01/18 10:16:42;;;;;;;23.58;12.57;;;;;;;;;;5016647;28;20076;-74
2024/01/18 10:19:18;;;;;;;19.70;8.48;;;;;;;;;;5018072;28;20041;-74
2024/01/18 10:21:46;;;;;;;35.28;12.00;;;;;;;;;;5016416;28;20425;-74
2024/01/18 10:24:12;;;;;;;25.73;13.30;;;;;;;;;;5016739;28;20022;-74
2024/01/18 10:26:38;;;;;;;28.23;12.48;;;;;;;;;;5016664;28;20026;-75
2024/01/18 10:29:05;;;;;;;26.85;13.10;;;;;;;;;;5016196;28;20108;-74
2024/01/18 10:31:34;;;;;;;23.95;10.88;;;;;;;;;;5016243;28;20443;-74
2024/01/18 10:34:03;;;;;;;23.90;11.75;;;;;;;;;;5016514;28;20046;-73
2024/01/18 10:36:28;;;;;;;29.15;11.65;;;;;;;;;;5016324;28;20030;-75
2024/01/18 10:38:53;;;;;;;20.55;10.05;;;;;;;;;;5001490;28;20025;-77
2024/01/18 10:41:19;;;;;;;27.33;11.38;;;;;;;;;;5017126;28;20022;-74
2024/01/18 10:43:44;;;;;;;23.77;11.70;;;;;;;;;;5016207;28;20504;-74
2024/01/18 10:46:10;;;;;;;25.17;12.38;;;;;;;;;;5017482;28;20105;-74
2024/01/18 10:48:36;;;;;;;25.92;12.40;;;;;;;;;;5016120;28;20022;-74
2024/01/18 10:51:02;;;;;;;27.23;11.93;;;;;;;;;;4997972;28;20042;-74
2024/01/18 10:53:34;;;;;;;24.52;11.75;;;;;;;;;;5016014;28;20029;-74
2024/01/18 10:56:01;;;;;;;26.02;12.63;;;;;;;;;;5015956;28;20022;-74
2024/01/18 10:58:26;;;;;;;31.23;12.32;;;;;;;;;;5000282;28;20112;-77
2024/01/18 11:00:52;;;;;;;27.98;12.55;;;;;;;;;;4999456;28;20068;-76
2024/01/18 11:03:17;;;;;;;26.98;12.25;;;;;;;;;;5014593;28;20030;-77
2024/01/18 11:05:47;;;;;;;20.27;10.30;;;;;;;;;;4997221;28;20033;-76
2024/01/18 11:08:13;;;;;;;24.17;11.25;;;;;;;;;;5014442;28;20629;-77
2024/01/18 11:10:39;;;;;;;25.90;11.23;;;;;;;;;;5014902;28;20034;-78
2024/01/18 11:13:05;;;;;;;26.80;11.25;;;;;;;;;;5016442;28;20046;-77
2024/01/18 11:15:31;;;;;;;21.20;10.52;;;;;;;;;;5016462;28;20076;-77
2024/01/18 11:17:57;;;;;;;25.60;11.02;;;;;;;;;;5016064;28;20028;-76
2024/01/18 11:20:23;;;;;;;27.42;12.38;;;;;;;;;;5016461;28;20045;-77
2024/01/18 11:22:48;;;;;;;25.08;12.13;;;;;;;;;;4998500;28;20026;-77
2024/01/18 11:25:28;;;;;;;27.98;12.73;;;;;;;;;;5016138;28;20030;-77
2024/01/18 11:27:54;;;;;;;25.65;12.07;;;;;;;;;;5016482;28;20415;-76
2024/01/18 11:30:38;;;;;;;21.02;10.95;;;;;;;;;;5016476;28;20022;-77
2024/01/18 11:33:07;;;;;;;24.05;11.13;;;;;;;;;;5023965;28;20082;-78
2024/01/18 11:35:34;;;;;;;19.50;9.82;;;;;;;;;;5004392;28;20029;-79
2024/01/18 11:38:20;;;;;;;9.20;5.72;;;;;;;;;;5023930;28;20378;-78
2024/01/18 11:40:46;;;;;;;30.65;12.57;;;;;;;;;;5010340;28;20109;-78
2024/01/18 11:43:12;;;;;;;24.75;10.50;;;;;;;;;;5024350;28;20077;-78
2024/01/18 11:45:37;;;;;;;11.23;6.03;;;;;;;;;;5006149;28;20432;-78
2024/01/18 11:48:03;;;;;;;15.77;7.93;;;;;;;;;;5022518;28;20042;-78
2024/01/18 11:50:28;;;;;;;12.10;5.60;;;;;;;;;;5008234;28;20028;-78
2024/01/18 11:52:54;;;;;;;11.10;5.82;;;;;;;;;;5028523;28;20030;-78
2024/01/18 11:55:21;;;;;;;13.38;6.65;;;;;;;;;;5028528;28;20072;-78
2024/01/18 11:57:47;;;;;;;7.43;4.05;;;;;;;;;;5027111;28;20040;-78
2024/01/18 12:00:13;;;;;;;13.15;7.15;;;;;;;;;;5019117;28;20033;-78
2024/01/18 12:02:39;;;;;;;14.05;6.72;;;;;;;;;;5003440;28;20099;-79
2024/01/18 12:05:07;;;;;;;18.23;7.43;;;;;;;;;;5024580;28;20018;-79
2024/01/18 12:07:33;;;;;;;14.30;7.47;;;;;;;;;;5005637;28;20030;-78
2024/01/18 12:09:59;;;;;;;11.70;6.45;;;;;;;;;;5025313;28;20057;-78
2024/01/18 12:12:24;;;;;;;11.55;6.00;;;;;;;;;;5020385;28;20034;-79
2024/01/18 12:14:50;;;;;;;9.68;5.60;;;;;;;;;;5017832;28;20037;-75
2024/01/18 12:17:16;;;;;;;15.90;6.57;;;;;;;;;;5015660;28;20028;-76
2024/01/18 12:19:43;;;;;;;18.48;6.63;;;;;;;;;;5015246;28;20086;-76
2024/01/18 12:22:11;;;;;;;15.98;6.80;;;;;;;;;;5017669;28;20026;-78
2024/01/18 12:24:37;;;;;;;13.30;7.07;;;;;;;;;;5017538;28;20022;-77
2024/01/18 12:27:04;;;;;;;12.07;7.25;;;;;;;;;;5019378;28;20034;-77
2024/01/18 12:29:31;;;;;;;12.27;5.55;;;;;;;;;;5018453;28;20036;-77
2024/01/18 12:31:56;;;;;;;15.52;7.55;;;;;;;;;;5027013;28;20108;-77
2024/01/18 12:34:23;;;;;;;17.38;8.25;;;;;;;;;;5002449;28;20049;-78
2024/01/18 12:36:48;;;;;;;18.38;9.10;;;;;;;;;;4997744;28;20384;-77
2024/01/18 12:39:17;;;;;;;16.67;8.27;;;;;;;;;;5016968;28;20117;-77
2024/01/18 12:41:43;;;;;;;20.27;8.23;;;;;;;;;;4998452;28;20030;-77
2024/01/18 12:44:09;;;;;;;17.98;5.57;;;;;;;;;;5015945;28;20026;-78
2024/01/18 12:46:35;;;;;;;14.80;7.25;;;;;;;;;;5003369;28;20032;-78
2024/01/18 12:49:01;;;;;;;15.88;8.30;;;;;;;;;;5017638;28;20032;-78
2024/01/18 12:51:28;;;;;;;16.58;8.18;;;;;;;;;;5000023;28;20045;-77
2024/01/18 12:53:54;;;;;;;19.60;8.77;;;;;;;;;;4997859;28;20440;-78
2024/01/18 12:56:19;;;;;;;15.98;8.45;;;;;;;;;;5015445;28;20026;-77
2024/01/18 12:58:45;;;;;;;20.25;9.50;;;;;;;;;;5017466;28;20076;-76
2024/01/18 13:01:33;;;;;;;21.20;8.70;;;;;;;;;;5016965;28;20419;-77
2024/01/18 13:04:24;;;;;;;12.32;6.10;;;;;;;;;;5017008;28;20030;-77
2024/01/18 13:06:51;;;;;;;18.05;8.38;;;;;;;;;;5001559;28;20040;-77
2024/01/18 13:09:20;;;;;;;16.90;7.78;;;;;;;;;;5018368;28;20098;-78
2024/01/18 13:11:46;;;;;;;19.92;7.72;;;;;;;;;;5003399;28;20048;-78
2024/01/18 13:14:15;;;;;;;12.25;5.72;;;;;;;;;;5019758;28;20029;-78
2024/01/18 13:16:42;;;;;;;7.25;4.20;;;;;;;;;;5003362;28;20452;-78
2024/01/18 13:19:10;;;;;;;8.40;4.60;;;;;;;;;;5018381;28;20022;-78
2024/01/18 13:21:35;;;;;;;14.25;7.22;;;;;;;;;;5018757;28;20026;-78
2024/01/18 13:24:02;;;;;;;18.83;7.20;;;;;;;;;;5018949;28;20048;-77
2024/01/18 13:26:28;;;;;;;9.00;5.03;;;;;;;;;;5000125;28;20034;-77
2024/01/18 13:28:53;;;;;;;15.25;6.43;;;;;;;;;;5020037;28;20104;-77
2024/01/18 13:31:19;;;;;;;10.85;5.82;;;;;;;;;;5020719;28;20026;-78
2024/01/18 13:33:44;;;;;;;10.60;5.13;;;;;;;;;;5017991;28;20080;-77
2024/01/18 13:36:10;;;;;;;12.00;5.78;;;;;;;;;;5017645;28;20026;-78
2024/01/18 13:38:41;;;;;;;8.88;5.10;;;;;;;;;;5016968;28;20028;-77
2024/01/18 13:41:08;;;;;;;12.48;6.93;;;;;;;;;;4998452;28;20049;-77
2024/01/18 13:43:33;;;;;;;13.48;6.88;;;;;;;;;;5016956;28;20034;-79
2024/01/18 13:46:00;;;;;;;15.30;6.45;;;;;;;;;;5020242;28;20041;-77
2024/01/18 13:48:25;;;;;;;17.77;7.97;;;;;;;;;;5019613;28;20040;-78
2024/01/18 13:50:52;;;;;;;16.70;7.95;;;;;;;;;;5013806;28;20026;-78
2024/01/18 13:53:18;;;;;;;18.67;8.95;;;;;;;;;;5014542;28;20029;-78
2024/01/18 13:55:45;;;;;;;17.92;9.82;;;;;;;;;;5016304;28;20401;-78
2024/01/18 13:58:11;;;;;;;21.42;9.38;;;;;;;;;;5017278;28;20033;-78
2024/01/18 14:00:36;;;;;;;20.05;8.55;;;;;;;;;;5015850;28;20181;-77
2024/01/18 14:03:03;;;;;;;17.40;9.38;;;;;;;;;;5015128;28;20070;-77
2024/01/18 14:05:30;;;;;;;20.58;9.52;;;;;;;;;;5017271;28;20366;-77
2024/01/18 14:07:56;;;;;;;21.13;9.38;;;;;;;;;;5014777;28;20025;-76
2024/01/18 14:10:21;;;;;;;16.08;7.38;;;;;;;;;;5013637;28;20040;-78
2024/01/18 14:12:46;;;;;;;22.80;10.35;;;;;;;;;;5015840;28;20018;-77
2024/01/18 14:15:11;;;;;;;19.60;10.40;;;;;;;;;;5019309;28;20030;-78
2024/01/18 14:17:37;;;;;;;21.20;10.57;;;;;;;;;;5007743;28;20100;-79